Chl Innovator — 9VNG — position and weather

sailwx.info

Track history (hours):
 
Tides and Currents Weather Stations Pressure Air Temp Water Temp Dewpoint Dewpoint Depression Visibility Wind Speed Wind Dir Waves Ship Positions

Chl Innovator

Last reported at 2017-Nov-16 16:34 UTC. Time now 2017-Nov-17 17:42 UTC.
Position N 47°25' W 007°03'.

Length 176 m; draft 10.7 m.

Type: Cargo ship. MMSI: 563410000.

Date/timePositionNaut miles runAvg speedWind from/ knotsBaromVisibWave heightAir tempDewpointWater temp
2017-Nov-16 16:34N 47°25' W 007°03'212.8
2017-Nov-16 16:26N 47°26' W 007°02'1412.8
2017-Nov-16 15:21N 47°38' W 006°52'512.7
2017-Nov-16 14:57N 47°42' W 006°48'612.1
2017-Nov-16 14:27N 47°48' W 006°43'711.8
2017-Nov-16 13:53N 47°53' W 006°37'511.8
2017-Nov-16 13:30N 47°57' W 006°34'611.6
2017-Nov-16 12:59N 48°02' W 006°30'611.6
2017-Nov-16 12:28N 48°08' W 006°26'611.7
2017-Nov-16 11:58N 48°13' W 006°22'1312.1
2017-Nov-16 10:54N 48°24' W 006°12'613.0
2017-Nov-16 10:26N 48°30' W 006°08'613.1
2017-Nov-16 10:00N 48°35' W 006°04'713.3
2017-Nov-16 09:30N 48°41' W 005°59'913.9
2017-Nov-16 08:53N 48°48' W 005°53'514.0
2017-Nov-16 08:30N 48°53' W 005°49'713.9
2017-Nov-16 07:58N 48°58' W 005°41'713.9
2017-Nov-16 07:30N 49°01' W 005°32'813.8
2017-Nov-16 06:56N 49°05' W 005°21'613.4
2017-Nov-16 06:30N 49°07' W 005°14'713.1
2017-Nov-16 06:00N 49°11' W 005°05'611.9
2017-Nov-16 05:30N 49°14' W 004°58'611.2
2017-Nov-16 04:57N 49°17' W 004°49'510.8
2017-Nov-16 04:29N 49°20' W 004°43'610.6
2017-Nov-16 03:55N 49°23' W 004°35'1310.4
2017-Nov-16 02:39N 49°30' W 004°17'510.4
2017-Nov-16 02:07N 49°33' W 004°10'410.8
2017-Nov-16 01:46N 49°35' W 004°05'411.1
2017-Nov-16 01:22N 49°37' W 003°59'611.4
2017-Nov-16 00:50N 49°40' W 003°51'1712.4
2017-Nov-15 23:27N 49°48' W 003°28'613.2
2017-Nov-15 23:00N 49°51' W 003°20'713.3
2017-Nov-15 22:30N 49°55' W 003°11'713.1
2017-Nov-15 22:00N 49°58' W 003°02'612.7
2017-Nov-15 21:30N 50°01' W 002°54'612.3
2017-Nov-15 21:01N 50°03' W 002°45'611.7
2017-Nov-15 20:30N 50°04' W 002°36'1810.2
2017-Nov-15 18:42N 50°08' W 002°08'2 9.1
2017-Nov-15 18:30N 50°09' W 002°05'4 8.8
2017-Nov-15 18:00N 50°10' W 001°58'4 8.7
2017-Nov-15 17:30N 50°11' W 001°52'4 8.8
2017-Nov-15 17:00N 50°12' W 001°45'5 9.3
2017-Nov-15 16:30N 50°14' W 001°38'5 9.9
2017-Nov-15 16:00N 50°15' W 001°31'510.6
2017-Nov-15 15:31N 50°16' W 001°23'611.5
2017-Nov-15 15:00N 50°18' W 001°14'3113.4
2017-Nov-15 12:39N 50°27' W 000°27'213.5
2017-Nov-15 12:30N 50°27' W 000°24'713.3
2017-Nov-15 12:00N 50°29' W 000°14'613.0
2017-Nov-15 11:30N 50°31' W 000°04'612.9
2017-Nov-15 11:00N 50°32' E 000°06'612.6
2017-Nov-15 10:30N 50°34' E 000°16'612.2
2017-Nov-15 10:00N 50°35' E 000°25'611.8
2017-Nov-15 09:30N 50°37' E 000°34'611.3
2017-Nov-15 09:00N 50°40' E 000°42'611.2
2017-Nov-15 08:30N 50°43' E 000°49'611.1
2017-Nov-15 08:00N 50°46' E 000°56'611.1
2017-Nov-15 07:26N 50°50' E 001°05'511.4
2017-Nov-15 07:00N 50°52' E 001°11'612.2
2017-Nov-15 06:30N 50°56' E 001°19'713.3
2017-Nov-15 06:00N 51°01' E 001°26'713.9
2017-Nov-15 05:31N 51°06' E 001°34'714.6
2017-Nov-15 05:01N 51°11' E 001°42'714.0
2017-Nov-15 04:30N 51°16' E 001°49'713.3
2017-Nov-15 04:00N 51°21' E 001°55'510.9
2017-Nov-15 03:30N 51°24' E 002°03'611.9
2017-Nov-15 03:00N 51°22' E 002°12'611.3
2017-Nov-15 02:30N 51°22' E 002°21'611.7
2017-Nov-15 02:00N 51°23' E 002°30'711.5
2017-Nov-15 01:23N 51°23' E 002°41'4 9.4
2017-Nov-15 01:00N 51°22' E 002°47'611.8
2017-Nov-15 00:30N 51°23' E 002°56'611.4
2017-Nov-15 00:00N 51°24' E 003°05'611.6
2017-Nov-14 23:30N 51°25' E 003°14'611.5
2017-Nov-14 23:00N 51°25' E 003°23'611.3
2017-Nov-14 22:30N 51°26' E 003°32'4 8.0
2017-Nov-14 22:00N 51°26' E 003°39'4 8.0
2017-Nov-14 21:30N 51°23' E 003°43'4 9.0
2017-Nov-14 21:00N 51°21' E 003°49'4 8.8
2017-Nov-14 20:30N 51°22' E 003°55'5 9.1
2017-Nov-14 20:00N 51°26' E 003°59'4 8.1
2017-Nov-14 19:30N 51°23' E 004°03'5 9.0
2017-Nov-14 19:00N 51°23' E 004°10'4 7.2
2017-Nov-14 18:30N 51°21' E 004°15'2 3.1
2017-Nov-14 18:00N 51°21' E 004°17'0 0.0
2017-Nov-14 17:29N 51°21' E 004°17'0 0.0
2017-Nov-14 17:01N 51°21' E 004°17'0 0.9
2017-Nov-14 16:30N 51°21' E 004°18'0 0.5
2017-Nov-14 16:00N 51°21' E 004°18'2 4.4
2017-Nov-14 15:30N 51°18' E 004°19'1 1.7
2017-Nov-14 15:00N 51°18' E 004°20'0 0.0
2017-Nov-14 14:27N 51°18' E 004°20'0 0.0
2017-Nov-14 13:57N 51°18' E 004°20'0 0.0
2017-Nov-14 13:30N 51°18' E 004°20'0 0.0
2017-Nov-14 13:00N 51°18' E 004°20'0 0.0
2017-Nov-14 12:30N 51°18' E 004°20'0 0.0
2017-Nov-14 12:00N 51°18' E 004°20'0 0.0
2017-Nov-14 11:30N 51°18' E 004°20'0 0.0
2017-Nov-14 11:00N 51°18' E 004°20'0 0.0
2017-Nov-14 10:27N 51°18' E 004°20'0 0.0
2017-Nov-14 09:54N 51°18' E 004°20'0 0.0
2017-Nov-14 09:30N 51°18' E 004°20'0 0.0
2017-Nov-14 09:00N 51°18' E 004°20'0 0.0
2017-Nov-14 08:30N 51°18' E 004°20'0 0.0
2017-Nov-14 08:00N 51°18' E 004°20'0 0.0
2017-Nov-14 07:27N 51°18' E 004°20'0 0.0
2017-Nov-14 07:00N 51°18' E 004°20'0 0.0
2017-Nov-14 06:30N 51°18' E 004°20'0 0.0
2017-Nov-14 05:54N 51°18' E 004°20'0 0.0
2017-Nov-14 05:30N 51°18' E 004°20'0 0.0
2017-Nov-14 05:00N 51°18' E 004°20'0 0.0
2017-Nov-14 04:30N 51°18' E 004°20'0 0.0
2017-Nov-14 04:00N 51°18' E 004°20'0 0.0
2017-Nov-14 03:30N 51°18' E 004°20'0 0.0
2017-Nov-14 03:00N 51°18' E 004°20'0 0.0
2017-Nov-14 02:30N 51°18' E 004°20'0 0.0
2017-Nov-14 02:00N 51°18' E 004°20'0 0.0
2017-Nov-14 01:30N 51°18' E 004°20'0 0.0
2017-Nov-14 01:00N 51°18' E 004°20'0 0.0
2017-Nov-14 00:27N 51°18' E 004°20'0 0.0
2017-Nov-14 00:00N 51°18' E 004°20'0 0.0
2017-Nov-13 23:30N 51°18' E 004°20'0 0.0
2017-Nov-13 22:57N 51°18' E 004°20'0 0.0
2017-Nov-13 22:30N 51°18' E 004°20'0 0.0
2017-Nov-13 22:00N 51°18' E 004°20'0 0.0
2017-Nov-13 02:00N 51°18' E 004°20'0 0.0
2017-Nov-13 01:30N 51°18' E 004°20'0 0.0
2017-Nov-13 01:00N 51°18' E 004°20'0 0.0
2017-Nov-13 00:30N 51°18' E 004°20'0 0.0
2017-Nov-13 00:00N 51°18' E 004°20'0 0.0
2017-Nov-12 23:30N 51°18' E 004°20'0 0.0
2017-Nov-12 23:00N 51°18' E 004°20'0 0.0
2017-Nov-12 22:30N 51°18' E 004°20'0 0.0
2017-Nov-12 22:00N 51°18' E 004°20'0 0.0
2017-Nov-12 21:30N 51°18' E 004°20'0 0.0
2017-Nov-12 21:00N 51°18' E 004°20'0 0.0
2017-Nov-12 20:30N 51°18' E 004°20'0 0.0
2017-Nov-12 20:00N 51°18' E 004°20'0 0.0
2017-Nov-12 19:30N 51°18' E 004°20'0 0.0
2017-Nov-12 19:00N 51°18' E 004°20'0 0.0
2017-Nov-12 18:30N 51°18' E 004°20'0 0.0
2017-Nov-12 18:00N 51°18' E 004°20'0 0.0
2017-Nov-12 17:30N 51°18' E 004°20'0 0.0
2017-Nov-12 17:00N 51°18' E 004°20'0 0.0
2017-Nov-12 16:30N 51°18' E 004°20'0 0.0
2017-Nov-12 16:00N 51°18' E 004°20'0 0.0
2017-Nov-12 15:30N 51°18' E 004°20'0 0.0
2017-Nov-12 15:00N 51°18' E 004°20'0 0.0
2017-Nov-12 14:30N 51°18' E 004°20'0 0.0
2017-Nov-12 14:00N 51°18' E 004°20'0 0.0
2017-Nov-12 13:30N 51°18' E 004°20'0 0.0
2017-Nov-12 13:00N 51°18' E 004°20'0 0.0
2017-Nov-12 12:30N 51°18' E 004°20'0 0.0
2017-Nov-12 12:00N 51°18' E 004°20'0 0.0
2017-Nov-12 11:27N 51°18' E 004°20'0 0.0
2017-Nov-12 11:00N 51°18' E 004°20'0 0.0
2017-Nov-12 10:27N 51°18' E 004°20'0 0.0
2017-Nov-12 09:57N 51°18' E 004°20'0 0.0
2017-Nov-12 09:30N 51°18' E 004°20'0 0.0
2017-Nov-12 09:00N 51°18' E 004°20'0 0.0
2017-Nov-12 08:30N 51°18' E 004°20'0 0.0
2017-Nov-12 08:00N 51°18' E 004°20'0 0.0
2017-Nov-12 07:30N 51°18' E 004°20'0 0.0
2017-Nov-12 07:00N 51°18' E 004°20'0 0.0
2017-Nov-12 06:30N 51°18' E 004°20'0 0.0
2017-Nov-12 06:00N 51°18' E 004°20'0 0.0
2017-Nov-12 05:30N 51°18' E 004°20'0 0.0
2017-Nov-12 05:00N 51°18' E 004°20'0 0.0
2017-Nov-12 04:30N 51°18' E 004°20'0 0.0
2017-Nov-12 04:00N 51°18' E 004°20'0 0.0
2017-Nov-12 03:30N 51°18' E 004°20'0 0.0
2017-Nov-12 02:57N 51°18' E 004°20'0 0.0
2017-Nov-12 02:30N 51°18' E 004°20'0 0.0
2017-Nov-12 01:57N 51°18' E 004°20'0 0.0
2017-Nov-12 01:30N 51°18' E 004°20'0 0.0
2017-Nov-12 01:00N 51°18' E 004°20'0 0.0
2017-Nov-12 00:30N 51°18' E 004°20'0 0.0
2017-Nov-11 23:57N 51°18' E 004°20'0 0.0
2017-Nov-11 23:30N 51°18' E 004°20'0 0.0
2017-Nov-11 23:00N 51°18' E 004°20'0 0.0
2017-Nov-11 22:30N 51°18' E 004°20'0 0.0
2017-Nov-11 22:00N 51°18' E 004°20'0 0.0
2017-Nov-11 21:30N 51°18' E 004°20'0 0.0
2017-Nov-11 21:00N 51°18' E 004°20'0 0.0
2017-Nov-11 20:30N 51°18' E 004°20'0 0.0
2017-Nov-11 20:00N 51°18' E 004°20'0 0.0
2017-Nov-11 19:30N 51°18' E 004°20'0 0.0
2017-Nov-11 19:00N 51°18' E 004°20'0 0.0
2017-Nov-11 18:30N 51°18' E 004°20'0 0.0
2017-Nov-11 18:00N 51°18' E 004°20'0 0.0
2017-Nov-11 17:30N 51°18' E 004°20'0 0.0
2017-Nov-11 17:00N 51°18' E 004°20'0 0.0
2017-Nov-11 16:24N 51°18' E 004°20'0 0.0
2017-Nov-11 15:57N 51°18' E 004°20'0 0.0
2017-Nov-11 15:30N 51°18' E 004°20'0 0.0
2017-Nov-11 15:00N 51°18' E 004°20'0 0.0
2017-Nov-11 14:27N 51°18' E 004°20'0 0.0
2017-Nov-11 14:00N 51°18' E 004°20'0 0.0
2017-Nov-11 13:30N 51°18' E 004°20'0 0.0
2017-Nov-11 13:00N 51°18' E 004°20'0 0.0
2017-Nov-11 12:30N 51°18' E 004°20'0 0.0
2017-Nov-11 12:00N 51°18' E 004°20'0 0.0
2017-Nov-11 11:30N 51°18' E 004°20'0 0.0
2017-Nov-11 11:00N 51°18' E 004°20'0 0.0
2017-Nov-11 10:30N 51°18' E 004°20'0 0.0
2017-Nov-11 10:00N 51°18' E 004°20'0 0.0
2017-Nov-11 09:30N 51°18' E 004°20'0 0.0
2017-Nov-11 09:00N 51°18' E 004°20'0 0.0
2017-Nov-11 08:30N 51°18' E 004°20'0 0.0
2017-Nov-11 08:00N 51°18' E 004°20'0 0.0
2017-Nov-11 07:27N 51°18' E 004°20'0 0.0
2017-Nov-11 06:57N 51°18' E 004°20'0 0.0
2017-Nov-11 06:30N 51°18' E 004°20'0 0.0
2017-Nov-11 05:57N 51°18' E 004°20'0 0.0
2017-Nov-11 05:27N 51°18' E 004°20'0 0.0
2017-Nov-11 04:54N 51°18' E 004°20'0 0.0
2017-Nov-11 04:30N 51°18' E 004°20'0 0.0
2017-Nov-11 04:00N 51°18' E 004°20'0 0.0
2017-Nov-11 03:30N 51°18' E 004°20'0 0.0
2017-Nov-11 03:00N 51°18' E 004°20'0 0.0
2017-Nov-11 02:24N 51°18' E 004°20'0 0.0
2017-Nov-11 02:00N 51°18' E 004°20'0 0.0
2017-Nov-11 01:30N 51°18' E 004°20'0 0.0
2017-Nov-11 00:57N 51°18' E 004°20'0 0.0
2017-Nov-11 00:30N 51°18' E 004°20'0 0.0
2017-Nov-11 00:00N 51°18' E 004°20'0 0.0
2017-Nov-10 23:30N 51°18' E 004°20'0 0.0
2017-Nov-10 23:00N 51°18' E 004°20'0 0.0
2017-Nov-10 22:30N 51°18' E 004°20'0 0.0
2017-Nov-10 22:00N 51°18' E 004°20'0 0.0
2017-Nov-10 21:30N 51°18' E 004°20'0 0.0
2017-Nov-10 21:00N 51°18' E 004°20'0 0.0
2017-Nov-10 20:30N 51°18' E 004°20'0 0.0
2017-Nov-10 20:00N 51°18' E 004°20'0 0.0
2017-Nov-10 19:30N 51°18' E 004°20'0 0.0
2017-Nov-10 19:00N 51°18' E 004°20'0 0.0
2017-Nov-10 18:30N 51°18' E 004°20'0 0.0
2017-Nov-10 18:00N 51°18' E 004°20'0 0.0
2017-Nov-10 17:30N 51°18' E 004°20'0 0.0
2017-Nov-10 16:57N 51°18' E 004°20'0 0.3
2017-Nov-10 16:30N 51°18' E 004°20'2 4.5
2017-Nov-10 16:00N 51°20' E 004°18'1 2.2
2017-Nov-10 15:30N 51°21' E 004°17'0 0.0
2017-Nov-10 15:01N 51°21' E 004°17'2 3.9
2017-Nov-10 14:30N 51°21' E 004°14'4 8.9
2017-Nov-10 14:00N 51°22' E 004°07'611.8
2017-Nov-10 13:30N 51°26' E 004°00'612.3
2017-Nov-10 13:00N 51°21' E 003°54'612.0
2017-Nov-10 12:30N 51°22' E 003°44'510.8
2017-Nov-10 12:00N 51°26' E 003°38'5 9.7
2017-Nov-10 11:30N 51°25' E 003°31'611.9
2017-Nov-10 11:00N 51°24' E 003°21'611.2
2017-Nov-10 10:30N 51°24' E 003°12'611.9
2017-Nov-10 10:01N 51°24' E 003°03'612.8
2017-Nov-10 09:30N 51°22' E 002°54'612.6
2017-Nov-10 09:00N 51°21' E 002°43'610.0
2017-Nov-10 08:27N 51°22' E 002°35'5 8.9
2017-Nov-10 07:54N 51°21' E 002°27'3 8.9
2017-Nov-10 07:30N 51°19' E 002°22'5 9.4
2017-Nov-10 07:00N 51°17' E 002°15'5 9.1
2017-Nov-10 06:30N 51°15' E 002°09'4 9.0
2017-Nov-10 06:00N 51°13' E 002°03'4 8.8
2017-Nov-10 05:30N 51°11' E 001°56'5 9.1
2017-Nov-10 05:00N 51°08' E 001°50'5 9.0
2017-Nov-10 04:30N 51°05' E 001°45'5 9.1
2017-Nov-10 04:00N 51°02' E 001°41'5 9.0
2017-Nov-10 03:30N 50°58' E 001°36'4 8.9
2017-Nov-10 03:00N 50°55' E 001°31'4 8.3
2017-Nov-10 02:30N 50°51' E 001°29'5 9.7
2017-Nov-10 02:00N 50°46' E 001°27'5 9.5
2017-Nov-10 01:30N 50°42' E 001°24'5 9.4
2017-Nov-10 01:00N 50°39' E 001°18'21 9.0
2017-Nov-09 22:40N 50°27' E 000°51'17 8.4
2017-Nov-09 20:38N 50°22' E 000°25'2 8.9
2017-Nov-09 20:21N 50°22' E 000°21'3 8.8
2017-Nov-09 20:00N 50°21' E 000°16'4 8.8
2017-Nov-09 19:30N 50°20' E 000°10'4 8.9
2017-Nov-09 19:00N 50°18' E 000°03'5 9.5
2017-Nov-09 18:29N 50°17' W 000°04'7 9.5
2017-Nov-09 17:47N 50°16' W 000°15'3 9.6
2017-Nov-09 17:29N 50°15' W 000°19'14 9.7
2017-Nov-09 16:05N 50°12' W 000°40'2 8.6
2017-Nov-09 15:49N 50°11' W 000°43'3 8.7
2017-Nov-09 15:26N 50°10' W 000°48'4 9.2
2017-Nov-09 15:00N 50°09' W 000°54'5 9.1
2017-Nov-09 14:30N 50°08' W 001°01'5 9.5
2017-Nov-09 14:00N 50°06' W 001°08'5 9.0
2017-Nov-09 13:30N 50°05' W 001°14'5 9.1
2017-Nov-09 13:00N 50°03' W 001°21'5 9.6
2017-Nov-09 12:30N 50°02' W 001°28'510.0
2017-Nov-09 12:00N 50°01' W 001°36'510.5
2017-Nov-09 11:30N 49°59' W 001°44'510.7
2017-Nov-09 11:00N 49°58' W 001°52'510.7
2017-Nov-09 10:30N 49°57' W 001°60'510.1
2017-Nov-09 10:00N 49°56' W 002°08'12 9.8
2017-Nov-09 08:48N 49°53' W 002°25'710.1
2017-Nov-09 08:03N 49°51' W 002°37'110.1
2017-Nov-09 07:57N 49°51' W 002°38'5 9.9
2017-Nov-09 07:29N 49°50' W 002°45'5 9.5
2017-Nov-09 07:00N 49°48' W 002°52'5 9.1
2017-Nov-09 06:25N 49°45' W 002°59'4 9.7
2017-Nov-09 06:00N 49°43' W 003°04'611.2
2017-Nov-09 05:27N 49°40' W 003°13'7910.9
2017-Nov-08 22:13N 49°01' W 004°58'1712.9
2017-Nov-08 20:52N 48°52' W 005°21'513.5
2017-Nov-08 20:29N 48°50' W 005°28'713.6
2017-Nov-08 19:59N 48°46' W 005°36'55311.9
2017-Nov-06 21:29N 40°03' W 009°49'912.3
2017-Nov-06 20:46N 39°54' W 009°49'  
Track history (hours):
 
Tides and Currents Weather Stations Pressure Air Temp Water Temp Dewpoint Dewpoint Depression Visibility Wind Speed Wind Dir Waves Ship Positions

Chl Innovator

Last reported at 2017-Nov-16 16:34 UTC. Time now 2017-Nov-17 17:42 UTC.
Position N 47°25' W 007°03'.

Length 176 m; draft 10.7 m.

Type: Cargo ship. MMSI: 563410000.

Date/timePositionNaut miles runAvg speedWind from/ knotsBaromVisibWave heightAir tempDewpointWater temp
2017-Nov-16 16:34N 47°25' W 007°03'212.8
2017-Nov-16 16:26N 47°26' W 007°02'1412.8
2017-Nov-16 15:21N 47°38' W 006°52'512.7
2017-Nov-16 14:57N 47°42' W 006°48'612.1
2017-Nov-16 14:27N 47°48' W 006°43'711.8
2017-Nov-16 13:53N 47°53' W 006°37'511.8
2017-Nov-16 13:30N 47°57' W 006°34'611.6
2017-Nov-16 12:59N 48°02' W 006°30'611.6
2017-Nov-16 12:28N 48°08' W 006°26'611.7
2017-Nov-16 11:58N 48°13' W 006°22'1312.1
2017-Nov-16 10:54N 48°24' W 006°12'613.0
2017-Nov-16 10:26N 48°30' W 006°08'613.1
2017-Nov-16 10:00N 48°35' W 006°04'713.3
2017-Nov-16 09:30N 48°41' W 005°59'913.9
2017-Nov-16 08:53N 48°48' W 005°53'514.0
2017-Nov-16 08:30N 48°53' W 005°49'713.9
2017-Nov-16 07:58N 48°58' W 005°41'713.9
2017-Nov-16 07:30N 49°01' W 005°32'813.8
2017-Nov-16 06:56N 49°05' W 005°21'613.4
2017-Nov-16 06:30N 49°07' W 005°14'713.1
2017-Nov-16 06:00N 49°11' W 005°05'611.9
2017-Nov-16 05:30N 49°14' W 004°58'611.2
2017-Nov-16 04:57N 49°17' W 004°49'510.8
2017-Nov-16 04:29N 49°20' W 004°43'610.6
2017-Nov-16 03:55N 49°23' W 004°35'1310.4
2017-Nov-16 02:39N 49°30' W 004°17'510.4
2017-Nov-16 02:07N 49°33' W 004°10'410.8
2017-Nov-16 01:46N 49°35' W 004°05'411.1
2017-Nov-16 01:22N 49°37' W 003°59'611.4
2017-Nov-16 00:50N 49°40' W 003°51'1712.4
2017-Nov-15 23:27N 49°48' W 003°28'613.2
2017-Nov-15 23:00N 49°51' W 003°20'713.3
2017-Nov-15 22:30N 49°55' W 003°11'713.1
2017-Nov-15 22:00N 49°58' W 003°02'612.7
2017-Nov-15 21:30N 50°01' W 002°54'612.3
2017-Nov-15 21:01N 50°03' W 002°45'611.7
2017-Nov-15 20:30N 50°04' W 002°36'1810.2
2017-Nov-15 18:42N 50°08' W 002°08'2 9.1
2017-Nov-15 18:30N 50°09' W 002°05'4 8.8
2017-Nov-15 18:00N 50°10' W 001°58'4 8.7
2017-Nov-15 17:30N 50°11' W 001°52'4 8.8
2017-Nov-15 17:00N 50°12' W 001°45'5 9.3
2017-Nov-15 16:30N 50°14' W 001°38'5 9.9
2017-Nov-15 16:00N 50°15' W 001°31'510.6
2017-Nov-15 15:31N 50°16' W 001°23'611.5
2017-Nov-15 15:00N 50°18' W 001°14'3113.4
2017-Nov-15 12:39N 50°27' W 000°27'213.5
2017-Nov-15 12:30N 50°27' W 000°24'713.3
2017-Nov-15 12:00N 50°29' W 000°14'613.0
2017-Nov-15 11:30N 50°31' W 000°04'612.9
2017-Nov-15 11:00N 50°32' E 000°06'612.6
2017-Nov-15 10:30N 50°34' E 000°16'612.2
2017-Nov-15 10:00N 50°35' E 000°25'611.8
2017-Nov-15 09:30N 50°37' E 000°34'611.3
2017-Nov-15 09:00N 50°40' E 000°42'611.2
2017-Nov-15 08:30N 50°43' E 000°49'611.1
2017-Nov-15 08:00N 50°46' E 000°56'611.1
2017-Nov-15 07:26N 50°50' E 001°05'511.4
2017-Nov-15 07:00N 50°52' E 001°11'612.2
2017-Nov-15 06:30N 50°56' E 001°19'713.3
2017-Nov-15 06:00N 51°01' E 001°26'713.9
2017-Nov-15 05:31N 51°06' E 001°34'714.6
2017-Nov-15 05:01N 51°11' E 001°42'714.0
2017-Nov-15 04:30N 51°16' E 001°49'713.3
2017-Nov-15 04:00N 51°21' E 001°55'510.9
2017-Nov-15 03:30N 51°24' E 002°03'611.9
2017-Nov-15 03:00N 51°22' E 002°12'611.3
2017-Nov-15 02:30N 51°22' E 002°21'611.7
2017-Nov-15 02:00N 51°23' E 002°30'711.5
2017-Nov-15 01:23N 51°23' E 002°41'4 9.4
2017-Nov-15 01:00N 51°22' E 002°47'611.8
2017-Nov-15 00:30N 51°23' E 002°56'611.4
2017-Nov-15 00:00N 51°24' E 003°05'611.6
2017-Nov-14 23:30N 51°25' E 003°14'611.5
2017-Nov-14 23:00N 51°25' E 003°23'611.3
2017-Nov-14 22:30N 51°26' E 003°32'4 8.0
2017-Nov-14 22:00N 51°26' E 003°39'4 8.0
2017-Nov-14 21:30N 51°23' E 003°43'4 9.0
2017-Nov-14 21:00N 51°21' E 003°49'4 8.8
2017-Nov-14 20:30N 51°22' E 003°55'5 9.1
2017-Nov-14 20:00N 51°26' E 003°59'4 8.1
2017-Nov-14 19:30N 51°23' E 004°03'5 9.0
2017-Nov-14 19:00N 51°23' E 004°10'4 7.2
2017-Nov-14 18:30N 51°21' E 004°15'2 3.1
2017-Nov-14 18:00N 51°21' E 004°17'0 0.0
2017-Nov-14 17:29N 51°21' E 004°17'0 0.0
2017-Nov-14 17:01N 51°21' E 004°17'0 0.9
2017-Nov-14 16:30N 51°21' E 004°18'0 0.5
2017-Nov-14 16:00N 51°21' E 004°18'2 4.4
2017-Nov-14 15:30N 51°18' E 004°19'1 1.7
2017-Nov-14 15:00N 51°18' E 004°20'0 0.0
2017-Nov-14 14:27N 51°18' E 004°20'0 0.0
2017-Nov-14 13:57N 51°18' E 004°20'0 0.0
2017-Nov-14 13:30N 51°18' E 004°20'0 0.0
2017-Nov-14 13:00N 51°18' E 004°20'0 0.0
2017-Nov-14 12:30N 51°18' E 004°20'0 0.0
2017-Nov-14 12:00N 51°18' E 004°20'0 0.0
2017-Nov-14 11:30N 51°18' E 004°20'0 0.0
2017-Nov-14 11:00N 51°18' E 004°20'0 0.0
2017-Nov-14 10:27N 51°18' E 004°20'0 0.0
2017-Nov-14 09:54N 51°18' E 004°20'0 0.0
2017-Nov-14 09:30N 51°18' E 004°20'0 0.0
2017-Nov-14 09:00N 51°18' E 004°20'0 0.0
2017-Nov-14 08:30N 51°18' E 004°20'0 0.0
2017-Nov-14 08:00N 51°18' E 004°20'0 0.0
2017-Nov-14 07:27N 51°18' E 004°20'0 0.0
2017-Nov-14 07:00N 51°18' E 004°20'0 0.0
2017-Nov-14 06:30N 51°18' E 004°20'0 0.0
2017-Nov-14 05:54N 51°18' E 004°20'0 0.0
2017-Nov-14 05:30N 51°18' E 004°20'0 0.0
2017-Nov-14 05:00N 51°18' E 004°20'0 0.0
2017-Nov-14 04:30N 51°18' E 004°20'0 0.0
2017-Nov-14 04:00N 51°18' E 004°20'0 0.0
2017-Nov-14 03:30N 51°18' E 004°20'0 0.0
2017-Nov-14 03:00N 51°18' E 004°20'0 0.0
2017-Nov-14 02:30N 51°18' E 004°20'0 0.0
2017-Nov-14 02:00N 51°18' E 004°20'0 0.0
2017-Nov-14 01:30N 51°18' E 004°20'0 0.0
2017-Nov-14 01:00N 51°18' E 004°20'0 0.0
2017-Nov-14 00:27N 51°18' E 004°20'0 0.0
2017-Nov-14 00:00N 51°18' E 004°20'0 0.0
2017-Nov-13 23:30N 51°18' E 004°20'0 0.0
2017-Nov-13 22:57N 51°18' E 004°20'0 0.0
2017-Nov-13 22:30N 51°18' E 004°20'0 0.0
2017-Nov-13 22:00N 51°18' E 004°20'0 0.0
2017-Nov-13 02:00N 51°18' E 004°20'0 0.0
2017-Nov-13 01:30N 51°18' E 004°20'0 0.0
2017-Nov-13 01:00N 51°18' E 004°20'0 0.0
2017-Nov-13 00:30N 51°18' E 004°20'0 0.0
2017-Nov-13 00:00N 51°18' E 004°20'0 0.0
2017-Nov-12 23:30N 51°18' E 004°20'0 0.0
2017-Nov-12 23:00N 51°18' E 004°20'0 0.0
2017-Nov-12 22:30N 51°18' E 004°20'0 0.0
2017-Nov-12 22:00N 51°18' E 004°20'0 0.0
2017-Nov-12 21:30N 51°18' E 004°20'0 0.0
2017-Nov-12 21:00N 51°18' E 004°20'0 0.0
2017-Nov-12 20:30N 51°18' E 004°20'0 0.0
2017-Nov-12 20:00N 51°18' E 004°20'0 0.0
2017-Nov-12 19:30N 51°18' E 004°20'0 0.0
2017-Nov-12 19:00N 51°18' E 004°20'0 0.0
2017-Nov-12 18:30N 51°18' E 004°20'0 0.0
2017-Nov-12 18:00N 51°18' E 004°20'0 0.0
2017-Nov-12 17:30N 51°18' E 004°20'0 0.0
2017-Nov-12 17:00N 51°18' E 004°20'0 0.0
2017-Nov-12 16:30N 51°18' E 004°20'0 0.0
2017-Nov-12 16:00N 51°18' E 004°20'0 0.0
2017-Nov-12 15:30N 51°18' E 004°20'0 0.0
2017-Nov-12 15:00N 51°18' E 004°20'0 0.0
2017-Nov-12 14:30N 51°18' E 004°20'0 0.0
2017-Nov-12 14:00N 51°18' E 004°20'0 0.0
2017-Nov-12 13:30N 51°18' E 004°20'0 0.0
2017-Nov-12 13:00N 51°18' E 004°20'0 0.0
2017-Nov-12 12:30N 51°18' E 004°20'0 0.0
2017-Nov-12 12:00N 51°18' E 004°20'0 0.0
2017-Nov-12 11:27N 51°18' E 004°20'0 0.0
2017-Nov-12 11:00N 51°18' E 004°20'0 0.0
2017-Nov-12 10:27N 51°18' E 004°20'0 0.0
2017-Nov-12 09:57N 51°18' E 004°20'0 0.0
2017-Nov-12 09:30N 51°18' E 004°20'0 0.0
2017-Nov-12 09:00N 51°18' E 004°20'0 0.0
2017-Nov-12 08:30N 51°18' E 004°20'0 0.0
2017-Nov-12 08:00N 51°18' E 004°20'0 0.0
2017-Nov-12 07:30N 51°18' E 004°20'0 0.0
2017-Nov-12 07:00N 51°18' E 004°20'0 0.0
2017-Nov-12 06:30N 51°18' E 004°20'0 0.0
2017-Nov-12 06:00N 51°18' E 004°20'0 0.0
2017-Nov-12 05:30N 51°18' E 004°20'0 0.0
2017-Nov-12 05:00N 51°18' E 004°20'0 0.0
2017-Nov-12 04:30N 51°18' E 004°20'0 0.0
2017-Nov-12 04:00N 51°18' E 004°20'0 0.0
2017-Nov-12 03:30N 51°18' E 004°20'0 0.0
2017-Nov-12 02:57N 51°18' E 004°20'0 0.0
2017-Nov-12 02:30N 51°18' E 004°20'0 0.0
2017-Nov-12 01:57N 51°18' E 004°20'0 0.0
2017-Nov-12 01:30N 51°18' E 004°20'0 0.0
2017-Nov-12 01:00N 51°18' E 004°20'0 0.0
2017-Nov-12 00:30N 51°18' E 004°20'0 0.0
2017-Nov-11 23:57N 51°18' E 004°20'0 0.0
2017-Nov-11 23:30N 51°18' E 004°20'0 0.0
2017-Nov-11 23:00N 51°18' E 004°20'0 0.0
2017-Nov-11 22:30N 51°18' E 004°20'0 0.0
2017-Nov-11 22:00N 51°18' E 004°20'0 0.0
2017-Nov-11 21:30N 51°18' E 004°20'0 0.0
2017-Nov-11 21:00N 51°18' E 004°20'0 0.0
2017-Nov-11 20:30N 51°18' E 004°20'0 0.0
2017-Nov-11 20:00N 51°18' E 004°20'0 0.0
2017-Nov-11 19:30N 51°18' E 004°20'0 0.0
2017-Nov-11 19:00N 51°18' E 004°20'0 0.0
2017-Nov-11 18:30N 51°18' E 004°20'0 0.0
2017-Nov-11 18:00N 51°18' E 004°20'0 0.0
2017-Nov-11 17:30N 51°18' E 004°20'0 0.0
2017-Nov-11 17:00N 51°18' E 004°20'0 0.0
2017-Nov-11 16:24N 51°18' E 004°20'0 0.0
2017-Nov-11 15:57N 51°18' E 004°20'0 0.0
2017-Nov-11 15:30N 51°18' E 004°20'0 0.0
2017-Nov-11 15:00N 51°18' E 004°20'0 0.0
2017-Nov-11 14:27N 51°18' E 004°20'0 0.0
2017-Nov-11 14:00N 51°18' E 004°20'0 0.0
2017-Nov-11 13:30N 51°18' E 004°20'0 0.0
2017-Nov-11 13:00N 51°18' E 004°20'0 0.0
2017-Nov-11 12:30N 51°18' E 004°20'0 0.0
2017-Nov-11 12:00N 51°18' E 004°20'0 0.0
2017-Nov-11 11:30N 51°18' E 004°20'0 0.0
2017-Nov-11 11:00N 51°18' E 004°20'0 0.0
2017-Nov-11 10:30N 51°18' E 004°20'0 0.0
2017-Nov-11 10:00N 51°18' E 004°20'0 0.0
2017-Nov-11 09:30N 51°18' E 004°20'0 0.0
2017-Nov-11 09:00N 51°18' E 004°20'0 0.0
2017-Nov-11 08:30N 51°18' E 004°20'0 0.0
2017-Nov-11 08:00N 51°18' E 004°20'0 0.0
2017-Nov-11 07:27N 51°18' E 004°20'0 0.0
2017-Nov-11 06:57N 51°18' E 004°20'0 0.0
2017-Nov-11 06:30N 51°18' E 004°20'0 0.0
2017-Nov-11 05:57N 51°18' E 004°20'0 0.0
2017-Nov-11 05:27N 51°18' E 004°20'0 0.0
2017-Nov-11 04:54N 51°18' E 004°20'0 0.0
2017-Nov-11 04:30N 51°18' E 004°20'0 0.0
2017-Nov-11 04:00N 51°18' E 004°20'0 0.0
2017-Nov-11 03:30N 51°18' E 004°20'0 0.0
2017-Nov-11 03:00N 51°18' E 004°20'0 0.0
2017-Nov-11 02:24N 51°18' E 004°20'0 0.0
2017-Nov-11 02:00N 51°18' E 004°20'0 0.0
2017-Nov-11 01:30N 51°18' E 004°20'0 0.0
2017-Nov-11 00:57N 51°18' E 004°20'0 0.0
2017-Nov-11 00:30N 51°18' E 004°20'0 0.0
2017-Nov-11 00:00N 51°18' E 004°20'0 0.0
2017-Nov-10 23:30N 51°18' E 004°20'0 0.0
2017-Nov-10 23:00N 51°18' E 004°20'0 0.0
2017-Nov-10 22:30N 51°18' E 004°20'0 0.0
2017-Nov-10 22:00N 51°18' E 004°20'0 0.0
2017-Nov-10 21:30N 51°18' E 004°20'0 0.0
2017-Nov-10 21:00N 51°18' E 004°20'0 0.0
2017-Nov-10 20:30N 51°18' E 004°20'0 0.0
2017-Nov-10 20:00N 51°18' E 004°20'0 0.0
2017-Nov-10 19:30N 51°18' E 004°20'0 0.0
2017-Nov-10 19:00N 51°18' E 004°20'0 0.0
2017-Nov-10 18:30N 51°18' E 004°20'0 0.0
2017-Nov-10 18:00N 51°18' E 004°20'0 0.0
2017-Nov-10 17:30N 51°18' E 004°20'0 0.0
2017-Nov-10 16:57N 51°18' E 004°20'0 0.3
2017-Nov-10 16:30N 51°18' E 004°20'2 4.5
2017-Nov-10 16:00N 51°20' E 004°18'1 2.2
2017-Nov-10 15:30N 51°21' E 004°17'0 0.0
2017-Nov-10 15:01N 51°21' E 004°17'2 3.9
2017-Nov-10 14:30N 51°21' E 004°14'4 8.9
2017-Nov-10 14:00N 51°22' E 004°07'611.8
2017-Nov-10 13:30N 51°26' E 004°00'612.3
2017-Nov-10 13:00N 51°21' E 003°54'612.0
2017-Nov-10 12:30N 51°22' E 003°44'510.8
2017-Nov-10 12:00N 51°26' E 003°38'5 9.7
2017-Nov-10 11:30N 51°25' E 003°31'611.9
2017-Nov-10 11:00N 51°24' E 003°21'611.2
2017-Nov-10 10:30N 51°24' E 003°12'611.9
2017-Nov-10 10:01N 51°24' E 003°03'612.8
2017-Nov-10 09:30N 51°22' E 002°54'612.6
2017-Nov-10 09:00N 51°21' E 002°43'610.0
2017-Nov-10 08:27N 51°22' E 002°35'5 8.9
2017-Nov-10 07:54N 51°21' E 002°27'3 8.9
2017-Nov-10 07:30N 51°19' E 002°22'5 9.4
2017-Nov-10 07:00N 51°17' E 002°15'5 9.1
2017-Nov-10 06:30N 51°15' E 002°09'4 9.0
2017-Nov-10 06:00N 51°13' E 002°03'4 8.8
2017-Nov-10 05:30N 51°11' E 001°56'5 9.1
2017-Nov-10 05:00N 51°08' E 001°50'5 9.0
2017-Nov-10 04:30N 51°05' E 001°45'5 9.1
2017-Nov-10 04:00N 51°02' E 001°41'5 9.0
2017-Nov-10 03:30N 50°58' E 001°36'4 8.9
2017-Nov-10 03:00N 50°55' E 001°31'4 8.3
2017-Nov-10 02:30N 50°51' E 001°29'5 9.7
2017-Nov-10 02:00N 50°46' E 001°27'5 9.5
2017-Nov-10 01:30N 50°42' E 001°24'5 9.4
2017-Nov-10 01:00N 50°39' E 001°18'21 9.0
2017-Nov-09 22:40N 50°27' E 000°51'17 8.4
2017-Nov-09 20:38N 50°22' E 000°25'2 8.9
2017-Nov-09 20:21N 50°22' E 000°21'3 8.8
2017-Nov-09 20:00N 50°21' E 000°16'4 8.8
2017-Nov-09 19:30N 50°20' E 000°10'4 8.9
2017-Nov-09 19:00N 50°18' E 000°03'5 9.5
2017-Nov-09 18:29N 50°17' W 000°04'7 9.5
2017-Nov-09 17:47N 50°16' W 000°15'3 9.6
2017-Nov-09 17:29N 50°15' W 000°19'14 9.7
2017-Nov-09 16:05N 50°12' W 000°40'2 8.6
2017-Nov-09 15:49N 50°11' W 000°43'3 8.7
2017-Nov-09 15:26N 50°10' W 000°48'4 9.2
2017-Nov-09 15:00N 50°09' W 000°54'5 9.1
2017-Nov-09 14:30N 50°08' W 001°01'5 9.5
2017-Nov-09 14:00N 50°06' W 001°08'5 9.0
2017-Nov-09 13:30N 50°05' W 001°14'5 9.1
2017-Nov-09 13:00N 50°03' W 001°21'5 9.6
2017-Nov-09 12:30N 50°02' W 001°28'510.0
2017-Nov-09 12:00N 50°01' W 001°36'510.5
2017-Nov-09 11:30N 49°59' W 001°44'510.7
2017-Nov-09 11:00N 49°58' W 001°52'510.7
2017-Nov-09 10:30N 49°57' W 001°60'510.1
2017-Nov-09 10:00N 49°56' W 002°08'12 9.8
2017-Nov-09 08:48N 49°53' W 002°25'710.1
2017-Nov-09 08:03N 49°51' W 002°37'110.1
2017-Nov-09 07:57N 49°51' W 002°38'5 9.9
2017-Nov-09 07:29N 49°50' W 002°45'5 9.5
2017-Nov-09 07:00N 49°48' W 002°52'5 9.1
2017-Nov-09 06:25N 49°45' W 002°59'4 9.7
2017-Nov-09 06:00N 49°43' W 003°04'611.2
2017-Nov-09 05:27N 49°40' W 003°13'7910.9
2017-Nov-08 22:13N 49°01' W 004°58'1712.9
2017-Nov-08 20:52N 48°52' W 005°21'513.5
2017-Nov-08 20:29N 48°50' W 005°28'713.6
2017-Nov-08 19:59N 48°46' W 005°36'55311.9
2017-Nov-06 21:29N 40°03' W 009°49'912.3
2017-Nov-06 20:46N 39°54' W 009°49'  

Dump ship's entire track history